createdAt,value
2023-01-19T00:02:21.222Z,22.00
2023-01-19T00:05:00.558Z,18.85
2023-01-19T00:07:42.348Z,18.95
2023-01-19T00:10:23.154Z,19.55
2023-01-19T00:13:07.137Z,18.05
2023-01-19T00:15:51.217Z,18.58
2023-01-19T00:18:33.128Z,17.40
2023-01-19T00:21:15.942Z,16.80
2023-01-19T00:23:59.233Z,14.85
2023-01-19T00:26:40.705Z,16.80
2023-01-19T00:29:26.045Z,14.55
2023-01-19T00:32:17.958Z,15.30
2023-01-19T00:35:02.681Z,14.75
2023-01-19T00:37:40.513Z,15.68
2023-01-19T00:40:24.002Z,15.65
2023-01-19T00:43:09.021Z,15.40
2023-01-19T00:45:54.467Z,15.18
2023-01-19T00:48:47.183Z,15.52
2023-01-19T00:51:26.726Z,14.93
2023-01-19T00:54:10.798Z,15.65
2023-01-19T00:56:54.761Z,14.30
2023-01-19T00:59:45.319Z,15.77
2023-01-19T01:02:27.143Z,15.45
2023-01-19T01:05:06.298Z,16.33
2023-01-19T01:07:44.700Z,15.77
2023-01-19T01:10:21.430Z,16.50
2023-01-19T01:13:21.267Z,14.60
2023-01-19T01:16:04.470Z,16.90
2023-01-19T01:18:46.078Z,16.02
2023-01-19T01:21:29.587Z,14.68
2023-01-19T01:24:10.234Z,16.27
2023-01-19T01:27:03.283Z,14.43
2023-01-19T01:29:40.487Z,12.52
2023-01-19T01:32:25.139Z,13.88
2023-01-19T01:35:00.488Z,11.35
2023-01-19T01:37:44.902Z,12.95
2023-01-19T01:40:26.299Z,11.70
2023-01-19T01:43:04.507Z,12.80
2023-01-19T01:45:55.175Z,12.80
2023-01-19T01:48:34.671Z,11.82
2023-01-19T01:51:25.659Z,15.65
2023-01-19T01:54:18.510Z,12.57
2023-01-19T01:57:00.857Z,11.48
2023-01-19T01:59:41.886Z,14.68
2023-01-19T02:02:43.303Z,16.73
2023-01-19T02:05:31.557Z,19.17
2023-01-19T02:08:44.312Z,17.50
2023-01-19T02:11:38.329Z,19.27
2023-01-19T02:14:18.439Z,27.00
2023-01-19T02:17:07.705Z,29.20
2023-01-19T02:19:54.449Z,15.88
2023-01-19T02:23:06.639Z,15.20
2023-01-19T02:25:51.057Z,15.20
2023-01-19T02:28:31.084Z,17.05
2023-01-19T02:31:18.075Z,16.98
2023-01-19T02:33:56.628Z,18.95
2023-01-19T02:36:41.726Z,17.38
2023-01-19T02:39:20.901Z,16.92
2023-01-19T02:42:06.595Z,18.42
2023-01-19T02:44:51.720Z,19.73
2023-01-19T02:47:27.450Z,17.63
2023-01-19T02:50:32.107Z,17.73
2023-01-19T02:53:37.708Z,15.38
2023-01-19T02:56:40.884Z,13.77
2023-01-19T02:59:31.371Z,15.15
2023-01-19T03:02:25.688Z,15.15
2023-01-19T03:05:20.044Z,15.30
2023-01-19T03:08:20.429Z,14.05
2023-01-19T03:11:22.265Z,16.48
2023-01-19T03:14:25.226Z,15.05
2023-01-19T03:17:04.130Z,14.35
2023-01-19T03:19:47.826Z,12.85
2023-01-19T03:22:29.584Z,14.35
2023-01-19T03:25:20.120Z,13.57
2023-01-19T03:28:07.601Z,13.48
2023-01-19T03:30:55.087Z,13.23
2023-01-19T03:33:50.212Z,13.75
2023-01-19T03:36:54.355Z,14.73
2023-01-19T03:39:38.576Z,14.05
2023-01-19T03:42:21.317Z,15.30
2023-01-19T03:45:01.960Z,15.13
2023-01-19T03:47:48.325Z,15.05
2023-01-19T03:50:36.356Z,16.63
2023-01-19T03:53:17.853Z,18.13
2023-01-19T03:56:01.756Z,17.63
2023-01-19T03:58:33.371Z,16.88
2023-01-19T04:01:20.951Z,17.13
2023-01-19T04:04:01.374Z,17.95
2023-01-19T04:06:41.073Z,18.50
2023-01-19T04:09:24.449Z,15.18
2023-01-19T04:12:04.331Z,14.40
2023-01-19T04:14:45.677Z,15.50
2023-01-19T04:17:32.669Z,17.33
2023-01-19T04:20:13.951Z,15.02
2023-01-19T04:22:49.799Z,15.43
2023-01-19T04:25:33.491Z,13.43
2023-01-19T04:30:51.150Z,13.43
2023-01-19T04:33:33.207Z,13.75
2023-01-19T04:36:11.755Z,15.05
2023-01-19T04:38:46.758Z,17.42
2023-01-19T04:41:32.936Z,16.20
2023-01-19T04:44:10.990Z,16.27
2023-01-19T04:47:12.685Z,16.23
2023-01-19T04:50:01.863Z,14.15
2023-01-19T04:52:52.561Z,15.80
2023-01-19T04:55:30.522Z,15.57
2023-01-19T04:58:14.787Z,14.20
2023-01-19T05:00:53.696Z,15.13
2023-01-19T05:03:39.502Z,17.40
2023-01-19T05:06:15.873Z,17.67
2023-01-19T05:08:51.164Z,17.00
2023-01-19T05:11:34.102Z,14.02
2023-01-19T05:14:16.903Z,14.57
2023-01-19T05:17:06.274Z,16.52
2023-01-19T05:19:43.760Z,16.33
2023-01-19T05:25:21.823Z,15.93
2023-01-19T05:28:04.106Z,14.98
2023-01-19T05:30:44.534Z,13.35
2023-01-19T05:33:26.293Z,14.95
2023-01-19T05:36:13.800Z,15.77
2023-01-19T05:38:52.831Z,14.65
2023-01-19T05:41:30.547Z,13.93
2023-01-19T05:44:09.420Z,14.60
2023-01-19T05:46:46.105Z,16.52
2023-01-19T05:49:27.086Z,14.00
2023-01-19T05:52:08.179Z,16.67
2023-01-19T05:54:51.989Z,16.25
2023-01-19T06:00:00.042Z,13.70
2023-01-19T06:02:49.526Z,15.60
2023-01-19T06:05:41.250Z,13.25
2023-01-19T06:08:19.435Z,13.90
2023-01-19T06:11:01.182Z,13.35
2023-01-19T06:13:48.180Z,12.23
2023-01-19T06:16:30.221Z,12.30
2023-01-19T06:19:11.744Z,11.70
2023-01-19T06:21:52.555Z,12.98
2023-01-19T06:24:30.987Z,14.38
2023-01-19T06:27:09.320Z,15.15
2023-01-19T06:29:55.277Z,13.52
2023-01-19T06:32:28.668Z,13.40
2023-01-19T06:35:13.315Z,17.08
2023-01-19T06:38:01.637Z,15.80
2023-01-19T06:40:36.854Z,13.63
2023-01-19T06:43:15.716Z,14.25
2023-01-19T06:46:10.859Z,14.35
2023-01-19T06:49:00.963Z,13.40
2023-01-19T06:51:36.341Z,12.82
2023-01-19T06:54:36.513Z,12.07
2023-01-19T06:57:17.459Z,12.88
2023-01-19T06:59:59.784Z,10.13
2023-01-19T07:02:37.815Z,12.18
2023-01-19T07:05:14.630Z,12.70
2023-01-19T07:07:56.716Z,12.50
2023-01-19T07:11:24.756Z,12.35
2023-01-19T07:13:57.559Z,12.70
2023-01-19T07:16:41.841Z,13.98
2023-01-19T07:19:26.635Z,14.43
2023-01-19T07:22:03.375Z,15.05
2023-01-19T07:24:51.106Z,14.20
2023-01-19T07:27:31.805Z,13.95
2023-01-19T07:30:07.910Z,14.98
2023-01-19T07:32:42.681Z,15.15
2023-01-19T07:35:22.151Z,15.68
2023-01-19T07:38:02.573Z,16.17
2023-01-19T07:40:38.711Z,16.08
2023-01-19T07:43:26.671Z,14.88
2023-01-19T07:46:06.852Z,17.65
2023-01-19T07:48:47.967Z,15.23
2023-01-19T07:51:25.663Z,15.68
2023-01-19T07:53:55.488Z,14.95
2023-01-19T07:56:33.852Z,14.35
2023-01-19T07:59:09.746Z,13.20
2023-01-19T08:01:48.513Z,14.55
2023-01-19T08:04:21.806Z,15.05
2023-01-19T08:06:57.466Z,16.35
2023-01-19T08:09:33.110Z,16.52
2023-01-19T08:12:04.160Z,17.35
2023-01-19T08:14:41.945Z,17.25
2023-01-19T08:17:19.880Z,18.40
2023-01-19T08:19:59.171Z,19.83
2023-01-19T08:22:34.606Z,16.35
2023-01-19T08:25:07.645Z,17.30
2023-01-19T08:27:34.925Z,16.27
2023-01-19T08:30:23.504Z,19.15
2023-01-19T08:33:10.480Z,17.50
2023-01-19T08:35:50.537Z,19.02
2023-01-19T08:38:32.040Z,19.02
2023-01-19T08:41:04.811Z,17.40
2023-01-19T08:43:43.097Z,24.77
2023-01-19T08:46:29.337Z,21.75
2023-01-19T08:49:09.866Z,20.25
2023-01-19T08:51:49.644Z,17.95
2023-01-19T08:54:31.388Z,18.30
2023-01-19T08:59:49.602Z,19.58
2023-01-19T09:02:26.266Z,17.98
2023-01-19T09:05:08.592Z,18.40
2023-01-19T09:07:50.104Z,19.60
2023-01-19T09:10:31.640Z,16.65
2023-01-19T09:13:11.101Z,18.42
2023-01-19T09:15:54.638Z,18.92
2023-01-19T09:18:32.105Z,18.98
2023-01-19T09:21:09.101Z,19.00
2023-01-19T09:23:49.974Z,22.38
2023-01-19T09:26:22.449Z,23.60
2023-01-19T09:29:00.446Z,22.25
2023-01-19T09:31:47.047Z,26.90
2023-01-19T09:34:23.277Z,23.90
2023-01-19T09:36:58.274Z,23.13
2023-01-19T09:39:36.637Z,23.10
2023-01-19T09:42:41.291Z,22.73
2023-01-19T09:45:43.008Z,23.02
2023-01-19T09:48:52.217Z,26.58
2023-01-19T09:51:38.091Z,21.25
2023-01-19T09:54:23.003Z,22.73
2023-01-19T09:57:11.825Z,20.35
2023-01-19T09:59:54.662Z,23.08
2023-01-19T10:02:41.441Z,21.65
2023-01-19T10:05:45.704Z,24.00
2023-01-19T10:08:34.165Z,22.83
2023-01-19T10:11:23.027Z,22.23
2023-01-19T10:14:01.926Z,20.83
2023-01-19T10:16:49.830Z,22.73
2023-01-19T10:19:36.905Z,21.30
2023-01-19T10:22:32.699Z,22.95
2023-01-19T10:25:19.867Z,32.83
2023-01-19T10:27:58.263Z,46.58
2023-01-19T10:30:35.183Z,29.15
2023-01-19T10:33:30.029Z,25.25
2023-01-19T10:36:24.399Z,22.40
2023-01-19T10:39:17.347Z,18.40
2023-01-19T10:42:06.447Z,31.15
2023-01-19T10:44:47.589Z,19.75
2023-01-19T10:47:33.900Z,16.45
2023-01-19T10:50:31.654Z,13.80
2023-01-19T10:53:20.453Z,15.15
2023-01-19T10:56:30.473Z,15.75
2023-01-19T10:59:07.643Z,14.52
2023-01-19T11:01:48.604Z,17.40
2023-01-19T11:04:54.695Z,16.23
2023-01-19T11:07:48.057Z,14.27
2023-01-19T11:10:33.865Z,10.68
2023-01-19T11:13:19.298Z,13.52
2023-01-19T11:16:21.666Z,12.50
2023-01-19T11:19:10.516Z,9.93
2023-01-19T11:21:49.560Z,11.88
2023-01-19T11:24:30.218Z,10.60
2023-01-19T11:27:10.104Z,8.98
2023-01-19T11:29:59.195Z,8.48
2023-01-19T11:32:45.093Z,9.50
2023-01-19T11:35:41.947Z,8.57
2023-01-19T11:38:29.841Z,10.38
2023-01-19T11:41:12.679Z,14.55
2023-01-19T11:43:49.448Z,10.53
2023-01-19T11:46:36.447Z,11.27
2023-01-19T11:49:30.995Z,10.07
2023-01-19T11:52:43.608Z,8.60
2023-01-19T11:55:35.150Z,9.27
2023-01-19T11:58:20.642Z,8.60
2023-01-19T12:01:10.227Z,9.30
2023-01-19T12:04:07.487Z,10.75
2023-01-19T12:06:55.761Z,10.90
2023-01-19T12:09:32.571Z,12.50
2023-01-19T12:12:29.786Z,12.38
2023-01-19T12:15:22.513Z,10.80
2023-01-19T12:18:09.634Z,12.48
2023-01-19T12:20:55.954Z,10.60
2023-01-19T12:24:01.433Z,12.55
2023-01-19T12:27:03.970Z,13.47
2023-01-19T12:29:48.043Z,12.93
2023-01-19T12:32:45.599Z,11.30
2023-01-19T12:35:52.455Z,12.15
2023-01-19T12:39:01.544Z,15.38
2023-01-19T12:41:46.032Z,12.45
2023-01-19T12:44:31.269Z,14.68
2023-01-19T12:47:24.471Z,13.95
2023-01-19T12:50:07.676Z,14.05
2023-01-19T12:53:13.396Z,13.95
2023-01-19T12:56:01.517Z,14.20
2023-01-19T12:58:45.534Z,16.27
2023-01-19T13:04:29.820Z,14.05
2023-01-19T13:07:10.663Z,14.77
2023-01-19T13:09:49.079Z,14.55
2023-01-19T13:12:29.648Z,19.85
2023-01-19T13:15:55.774Z,15.70
2023-01-19T13:18:48.904Z,15.00
2023-01-19T13:21:55.638Z,15.82
2023-01-19T13:25:12.629Z,15.50
2023-01-19T13:27:53.234Z,21.40
2023-01-19T13:30:38.719Z,16.60
2023-01-19T13:33:28.240Z,20.67
2023-01-19T13:36:06.422Z,18.75
2023-01-19T13:38:49.972Z,17.35
2023-01-19T13:41:41.272Z,17.95
2023-01-19T13:44:27.937Z,15.57
2023-01-19T13:47:08.759Z,16.30
2023-01-19T13:49:53.861Z,16.58
2023-01-19T13:52:51.912Z,16.05
2023-01-19T13:55:34.035Z,18.50
2023-01-19T13:58:30.608Z,18.65
2023-01-19T14:01:29.332Z,18.88
2023-01-19T14:04:08.639Z,19.75
2023-01-19T14:06:51.148Z,17.65
2023-01-19T14:09:37.030Z,21.95
2023-01-19T14:12:26.116Z,18.10
2023-01-19T14:15:15.642Z,22.17
2023-01-19T14:18:11.096Z,16.20
2023-01-19T14:21:06.981Z,14.73
2023-01-19T14:24:33.548Z,14.45
2023-01-19T14:27:30.415Z,13.00
2023-01-19T14:30:35.347Z,15.27
2023-01-19T14:33:45.474Z,14.25
2023-01-19T14:36:45.489Z,16.88
2023-01-19T14:39:34.616Z,15.38
2023-01-19T14:42:27.946Z,15.88
2023-01-19T14:45:17.675Z,16.05
2023-01-19T14:48:22.035Z,17.92
2023-01-19T14:51:22.665Z,23.65
2023-01-19T14:54:06.089Z,19.77
2023-01-19T14:56:52.089Z,23.10
2023-01-19T14:59:43.292Z,21.40
2023-01-19T15:02:24.667Z,26.65
2023-01-19T15:05:13.336Z,28.30
2023-01-19T15:07:53.428Z,29.40
2023-01-19T15:10:30.126Z,33.88
2023-01-19T15:13:05.767Z,32.35
2023-01-19T15:15:48.615Z,32.70
2023-01-19T15:18:40.866Z,39.13
2023-01-19T15:21:31.582Z,42.28
2023-01-19T15:24:09.854Z,39.50
2023-01-19T15:26:50.796Z,42.30
2023-01-19T15:29:32.401Z,41.00
2023-01-19T15:32:11.250Z,37.97
2023-01-19T15:34:56.615Z,42.03
2023-01-19T15:37:37.569Z,38.17
2023-01-19T15:40:21.077Z,39.33
2023-01-19T15:43:02.342Z,40.63
2023-01-19T15:45:41.228Z,38.10
2023-01-19T15:48:22.673Z,40.90
2023-01-19T15:50:58.672Z,39.38
2023-01-19T15:53:43.770Z,40.20
2023-01-19T15:56:26.557Z,41.22
2023-01-19T15:59:11.891Z,36.53
2023-01-19T16:01:51.784Z,49.15
2023-01-19T16:04:39.127Z,63.28
2023-01-19T16:07:23.351Z,71.20
2023-01-19T16:10:20.119Z,53.15
2023-01-19T16:13:03.720Z,50.42
2023-01-19T16:15:54.797Z,67.50
2023-01-19T16:18:32.556Z,47.88
2023-01-19T16:21:05.795Z,44.38
2023-01-19T16:23:44.137Z,40.55
2023-01-19T16:26:34.596Z,42.05
2023-01-19T16:29:11.112Z,64.95
2023-01-19T16:31:57.647Z,76.38
2023-01-19T16:34:33.184Z,74.18
2023-01-19T16:37:03.609Z,89.88
2023-01-19T16:39:43.907Z,113.07
2023-01-19T16:42:19.596Z,145.25
2023-01-19T16:44:57.863Z,41.42
2023-01-19T16:47:36.652Z,47.28
2023-01-19T16:50:15.747Z,57.60
2023-01-19T16:52:59.135Z,64.80
2023-01-19T16:55:46.602Z,55.28
2023-01-19T16:58:24.792Z,48.95
2023-01-19T17:01:03.376Z,44.97
2023-01-19T17:03:41.580Z,52.80
2023-01-19T17:06:29.652Z,44.88
2023-01-19T17:09:06.639Z,55.80
2023-01-19T17:11:49.587Z,47.08
2023-01-19T17:14:31.169Z,68.38
2023-01-19T17:17:09.439Z,54.55
2023-01-19T17:19:48.080Z,92.57
2023-01-19T17:22:26.579Z,123.05
2023-01-19T17:24:58.821Z,78.10
2023-01-19T17:27:42.112Z,88.40
2023-01-19T17:30:20.428Z,118.93
2023-01-19T17:32:58.762Z,77.13
2023-01-19T17:35:33.191Z,65.38
2023-01-19T17:38:06.607Z,99.47
2023-01-19T17:40:42.803Z,72.82
2023-01-19T17:43:17.831Z,86.45
2023-01-19T17:45:59.051Z,50.83
2023-01-19T17:48:34.600Z,36.40
2023-01-19T17:51:09.641Z,37.42
2023-01-19T17:53:50.346Z,39.67
2023-01-19T17:56:37.672Z,48.22
2023-01-19T17:59:21.256Z,37.03
2023-01-19T18:02:01.821Z,31.10
2023-01-19T18:04:41.122Z,36.92
2023-01-19T18:07:22.055Z,34.03
2023-01-19T18:10:11.237Z,38.55
2023-01-19T18:12:46.601Z,39.78
2023-01-19T18:15:30.443Z,34.83
2023-01-19T18:20:55.651Z,33.45
2023-01-19T18:23:28.627Z,30.58
2023-01-19T18:26:25.092Z,34.75
2023-01-19T18:29:13.074Z,41.83
2023-01-19T18:31:56.480Z,33.75
2023-01-19T18:34:33.882Z,37.10
2023-01-19T18:37:17.074Z,35.55
2023-01-19T18:39:54.650Z,32.50
2023-01-19T18:42:43.410Z,34.58
2023-01-19T18:45:23.576Z,41.92
2023-01-19T18:48:00.714Z,36.78
2023-01-19T18:50:44.108Z,60.08
2023-01-19T18:53:21.794Z,52.05
2023-01-19T18:56:10.414Z,50.80
2023-01-19T18:58:54.696Z,70.18
2023-01-19T19:01:35.155Z,112.10
2023-01-19T19:04:17.091Z,106.05
2023-01-19T19:06:58.497Z,116.05
2023-01-19T19:09:36.197Z,99.78
2023-01-19T19:12:11.639Z,69.28
2023-01-19T19:14:52.971Z,66.20
2023-01-19T19:17:33.509Z,55.05
2023-01-19T19:20:17.328Z,48.45
2023-01-19T19:25:32.848Z,42.42
2023-01-19T19:28:18.669Z,54.20
2023-01-19T19:31:17.000Z,55.78
2023-01-19T19:33:53.541Z,45.30
2023-01-19T19:36:30.618Z,61.35
2023-01-19T19:39:17.572Z,51.92
2023-01-19T19:41:50.539Z,44.92
2023-01-19T19:44:26.598Z,59.25
2023-01-19T19:47:07.323Z,59.75
2023-01-19T19:50:01.779Z,50.75
2023-01-19T19:52:47.190Z,42.88
2023-01-19T19:55:26.026Z,67.80
2023-01-19T19:58:13.746Z,44.55
2023-01-19T20:01:10.481Z,76.00
2023-01-19T20:04:09.022Z,68.20
2023-01-19T20:06:49.692Z,60.10
2023-01-19T20:09:43.194Z,41.47
2023-01-19T20:12:21.659Z,71.47
2023-01-19T20:15:02.315Z,45.38
2023-01-19T20:17:50.835Z,43.97
2023-01-19T20:20:43.442Z,159.50
2023-01-19T20:23:29.594Z,96.95
2023-01-19T20:28:53.971Z,86.85
2023-01-19T20:31:35.945Z,48.08
2023-01-19T20:34:20.893Z,49.33
2023-01-19T20:37:12.057Z,39.10
2023-01-19T20:39:54.611Z,50.97
2023-01-19T20:42:33.003Z,41.85
2023-01-19T20:45:19.470Z,54.05
2023-01-19T20:47:55.569Z,67.80
2023-01-19T20:50:38.728Z,62.78
2023-01-19T20:53:30.640Z,60.25
2023-01-19T20:56:06.646Z,35.58
2023-01-19T20:58:53.143Z,86.53
2023-01-19T21:01:33.194Z,35.13
2023-01-19T21:04:17.461Z,33.03
2023-01-19T21:06:55.327Z,34.92
2023-01-19T21:09:32.149Z,30.85
2023-01-19T21:12:25.685Z,34.33
2023-01-19T21:15:02.866Z,31.65
2023-01-19T21:17:55.142Z,33.13
2023-01-19T21:20:40.074Z,32.90
2023-01-19T21:23:23.605Z,30.85
2023-01-19T21:26:07.889Z,30.27
2023-01-19T21:28:48.447Z,36.15
2023-01-19T21:31:29.869Z,31.10
2023-01-19T21:36:48.400Z,28.83
2023-01-19T21:39:23.786Z,25.33
2023-01-19T21:42:07.440Z,20.77
2023-01-19T21:44:50.615Z,26.17
2023-01-19T21:47:34.119Z,26.88
2023-01-19T21:50:15.553Z,25.10
2023-01-19T21:52:59.170Z,25.25
2023-01-19T21:55:39.209Z,28.35
2023-01-19T21:58:20.592Z,27.75
2023-01-19T22:01:09.865Z,25.45
2023-01-19T22:03:46.382Z,22.50
2023-01-19T22:06:25.387Z,51.20
2023-01-19T22:09:01.747Z,31.75
2023-01-19T22:11:47.481Z,46.42
2023-01-19T22:14:22.474Z,31.05
2023-01-19T22:17:07.711Z,49.33
2023-01-19T22:19:46.608Z,49.30
2023-01-19T22:22:24.631Z,39.92
2023-01-19T22:24:56.845Z,35.85
2023-01-19T22:27:33.529Z,28.13
2023-01-19T22:30:12.364Z,42.63
2023-01-19T22:32:59.039Z,30.48
2023-01-19T22:35:34.085Z,27.20
2023-01-19T22:38:17.359Z,46.78
2023-01-19T22:40:57.939Z,56.00
2023-01-19T22:43:46.253Z,46.38
2023-01-19T22:46:33.622Z,28.58
2023-01-19T22:49:10.804Z,22.98
2023-01-19T22:51:54.530Z,29.23
2023-01-19T22:57:07.055Z,31.38
2023-01-19T23:00:00.499Z,25.30
2023-01-19T23:02:41.131Z,24.00
2023-01-19T23:05:22.703Z,36.33
2023-01-19T23:07:58.551Z,30.02
2023-01-19T23:10:41.040Z,28.67
2023-01-19T23:13:13.724Z,28.85
2023-01-19T23:15:54.397Z,24.52
2023-01-19T23:18:26.353Z,27.95
2023-01-19T23:21:13.777Z,28.63
2023-01-19T23:23:49.968Z,34.28
2023-01-19T23:26:42.523Z,26.90
2023-01-19T23:29:20.112Z,32.97
2023-01-19T23:31:57.956Z,21.77
2023-01-19T23:34:30.549Z,25.15
2023-01-19T23:37:11.525Z,23.13
2023-01-19T23:39:49.089Z,23.92
2023-01-19T23:42:36.043Z,22.42
2023-01-19T23:45:12.482Z,20.40
2023-01-19T23:47:57.852Z,25.35
2023-01-19T23:50:40.985Z,24.75
2023-01-19T23:53:21.419Z,25.35
2023-01-19T23:56:10.518Z,26.20
2023-01-19T23:58:49.665Z,24.40
